Time;durP1;ratioP1;P1;durP2;ratioP2;P2;SDS_P1;SDS_P2;PMS_P1;PMS_P2;Temp;Humidity;BMP_temperature;BMP_pressure;BME280_temperature;BME280_humidity;BME280_pressure;Samples;Min_cycle;Max_cycle;Signal;HPM_P1;HPM_P2
2021/04/23 00:01:22;;;;;;;7.17;2.97;;;;;;;5.37;72.54;101444.31;4962888;28;20253;-76
2021/04/23 00:03:51;;;;;;;4.67;2.47;;;;;;;5.33;72.45;101438.22;4964597;28;20222;-75
2021/04/23 00:06:20;;;;;;;3.60;2.30;;;;;;;5.32;71.79;101452.00;4966393;28;20244;-75
2021/04/23 00:08:49;;;;;;;5.87;2.80;;;;;;;5.35;71.47;101441.69;4965811;28;20226;-74
2021/04/23 00:11:18;;;;;;;5.13;2.67;;;;;;;5.36;71.48;101450.31;4966215;28;20205;-75
2021/04/23 00:13:44;;;;;;;5.53;2.60;;;;;;;5.34;71.38;101454.59;4964687;28;20226;-76
2021/04/23 00:16:11;;;;;;;5.03;2.77;;;;;;;5.32;71.63;101447.69;4967703;28;20214;-75
2021/04/23 00:18:37;;;;;;;5.73;2.33;;;;;;;5.31;71.23;101447.66;4965785;28;20714;-74
2021/04/23 00:21:04;;;;;;;6.60;2.77;;;;;;;5.29;71.61;101451.97;4967381;28;20202;-74
2021/04/23 00:23:32;;;;;;;5.33;2.47;;;;;;;5.29;71.11;101446.78;4963677;28;20642;-75
2021/04/23 00:26:00;;;;;;;5.70;2.57;;;;;;;5.27;71.14;101451.94;4967326;28;20216;-75
2021/04/23 00:28:26;;;;;;;7.40;2.97;;;;;;;5.25;71.10;101445.91;4966686;28;20209;-75
2021/04/23 00:30:55;;;;;;;5.50;2.50;;;;;;;5.23;71.22;101449.34;4964495;28;20555;-75
2021/04/23 00:33:23;;;;;;;5.50;2.50;;;;;;;5.22;71.19;101451.03;4966134;28;20755;-76
2021/04/23 00:35:50;;;;;;;4.17;2.50;;;;;;;5.23;71.11;101446.75;4963650;28;20777;-76
2021/04/23 00:38:18;;;;;;;8.83;2.83;;;;;;;5.21;71.39;101443.31;4966931;28;20233;-75
2021/04/23 00:40:50;;;;;;;6.63;2.67;;;;;;;5.17;72.14;101446.69;4964287;28;20210;-76
2021/04/23 00:43:19;;;;;;;6.07;2.63;;;;;;;5.16;72.16;101443.25;4967199;28;20736;-74
2021/04/23 00:45:45;;;;;;;8.67;2.60;;;;;;;5.13;72.55;101443.22;4963639;28;20687;-76
2021/04/23 00:48:13;;;;;;;7.83;2.70;;;;;;;5.11;72.07;101442.34;4966059;28;20708;-75
2021/04/23 00:50:42;;;;;;;5.17;2.60;;;;;;;5.10;72.17;101438.00;4966630;28;20264;-75
2021/04/23 00:53:11;;;;;;;4.13;2.83;;;;;;;5.08;73.42;101448.34;4964835;28;20234;-75
2021/04/23 00:55:37;;;;;;;7.77;3.23;;;;;;;5.07;72.12;101446.59;4965211;28;20285;-75
2021/04/23 00:58:10;;;;;;;8.17;3.10;;;;;;;5.05;72.69;101447.47;4967078;28;20222;-75
2021/04/23 01:00:37;;;;;;;6.90;2.93;;;;;;;5.03;72.79;101442.28;4963901;28;20304;-76
2021/04/23 01:03:03;;;;;;;5.70;3.33;;;;;;;4.99;72.82;101447.38;4965023;28;20248;-74
2021/04/23 01:05:32;;;;;;;8.33;2.77;;;;;;;4.98;72.25;101455.97;4966086;28;20237;-75
2021/04/23 01:07:58;;;;;;;7.33;3.27;;;;;;;4.98;72.17;101453.38;4966715;28;20690;-76
2021/04/23 01:10:24;;;;;;;5.47;2.83;;;;;;;4.95;72.22;101453.38;4966225;28;20213;-75
2021/04/23 01:12:50;;;;;;;3.73;2.77;;;;;;;4.93;72.50;101448.19;4963439;28;20226;-74
2021/04/23 01:15:16;;;;;;;8.13;2.73;;;;;;;4.88;73.22;101453.31;4966740;28;20241;-75
2021/04/23 01:17:43;;;;;;;4.47;3.27;;;;;;;4.84;72.56;101456.72;4965825;28;21644;-75
2021/04/23 01:20:11;;;;;;;5.43;3.03;;;;;;;4.84;72.50;101461.03;4965147;28;20246;-75
2021/04/23 01:22:39;;;;;;;7.07;2.63;;;;;;;4.83;72.79;101456.69;4963074;28;20233;-76
2021/04/23 01:25:07;;;;;;;6.33;3.00;;;;;;;4.80;73.07;101454.06;4966546;28;20678;-75
2021/04/23 01:27:33;;;;;;;3.80;2.80;;;;;;;4.76;73.16;101455.75;4964830;28;20209;-75
2021/04/23 01:29:59;;;;;;;7.73;3.03;;;;;;;4.71;73.21;101458.31;4963037;28;20285;-76
2021/04/23 01:32:27;;;;;;;7.33;3.03;;;;;;;4.65;73.58;101465.97;4961224;28;20586;-77
2021/04/23 01:34:53;;;;;;;8.37;3.37;;;;;;;4.58;74.25;101461.59;4964026;28;20205;-75
2021/04/23 01:37:19;;;;;;;10.00;3.30;;;;;;;4.56;74.00;101458.13;4964418;28;20570;-75
2021/04/23 01:39:46;;;;;;;7.53;3.20;;;;;;;4.54;74.52;101457.25;4960641;28;20234;-75
2021/04/23 01:42:13;;;;;;;6.47;2.80;;;;;;;4.50;74.46;101452.88;4963453;28;20313;-76
2021/04/23 01:44:40;;;;;;;5.97;2.60;;;;;;;4.44;75.36;101453.66;4964976;28;20229;-75
2021/04/23 01:47:07;;;;;;;8.77;3.83;;;;;;;4.42;75.52;101454.50;4957587;28;20208;-75
2021/04/23 01:49:35;;;;;;;5.23;2.97;;;;;;;4.39;75.35;101454.47;4959999;28;20644;-75
2021/04/23 01:52:06;;;;;;;7.50;3.40;;;;;;;4.36;75.05;101455.28;4957801;28;20309;-74
2021/04/23 01:54:32;;;;;;;6.43;2.93;;;;;;;4.37;75.50;101459.59;4963760;28;20388;-76
2021/04/23 01:56:58;;;;;;;10.27;3.43;;;;;;;4.31;75.35;101450.06;4966883;28;20198;-76
2021/04/23 01:59:25;;;;;;;6.27;3.40;;;;;;;4.31;75.94;101462.09;4956127;28;20245;-75
2021/04/23 02:01:51;;;;;;;7.77;3.07;;;;;;;4.26;76.01;101456.88;4960758;28;20209;-76
2021/04/23 02:04:19;;;;;;;5.60;3.13;;;;;;;4.21;76.90;101457.69;4963673;28;20633;-76
2021/04/23 02:06:47;;;;;;;9.17;3.60;;;;;;;4.17;76.09;101456.78;4968727;28;20243;-75
2021/04/23 02:09:13;;;;;;;7.60;3.23;;;;;;;4.13;76.85;101462.72;4968963;28;20212;-76
2021/04/23 02:11:43;;;;;;;8.27;3.90;;;;;;;4.05;76.86;101462.63;4968021;28;20213;-73
2021/04/23 02:14:09;;;;;;;9.00;3.10;;;;;;;3.98;77.20;101465.97;4964187;28;20280;-76
2021/04/23 02:16:36;;;;;;;8.37;3.43;;;;;;;3.93;77.63;101468.47;4966169;28;20205;-74
2021/04/23 02:19:04;;;;;;;8.93;3.20;;;;;;;3.87;78.06;101458.06;4966655;28;20309;-76
2021/04/23 02:21:30;;;;;;;7.30;2.93;;;;;;;3.81;78.41;101455.38;4969705;28;20210;-75
2021/04/23 02:23:56;;;;;;;6.57;3.30;;;;;;;3.73;78.92;101464.72;4964354;28;20232;-76
2021/04/23 02:26:23;;;;;;;9.53;3.40;;;;;;;3.70;78.54;101468.13;4966358;28;20688;-75
2021/04/23 02:28:50;;;;;;;6.87;3.37;;;;;;;3.65;79.04;101471.47;4964976;28;20524;-74
2021/04/23 02:31:20;;;;;;;8.77;3.10;;;;;;;3.55;79.30;101468.75;4968926;28;20284;-76
2021/04/23 02:33:48;;;;;;;7.30;2.93;;;;;;;3.52;79.54;101475.59;4968432;28;20237;-76
2021/04/23 02:36:15;;;;;;;7.37;3.47;;;;;;;3.48;80.01;101474.63;4964084;28;20238;-74
2021/04/23 02:38:41;;;;;;;6.40;3.37;;;;;;;3.42;80.29;101480.56;4966107;28;20230;-75
2021/04/23 02:41:07;;;;;;;7.50;3.30;;;;;;;3.39;80.63;101483.13;4965071;28;20210;-75
2021/04/23 02:43:37;;;;;;;5.73;2.93;;;;;;;3.35;80.94;101483.03;4966709;28;20292;-76
2021/04/23 02:46:03;;;;;;;10.60;3.90;;;;;;;3.28;81.32;101481.19;4969118;28;20232;-75
2021/04/23 02:48:35;;;;;;;6.87;2.97;;;;;;;3.28;81.88;101479.47;4965714;28;20202;-76
2021/04/23 02:51:04;;;;;;;5.47;3.37;;;;;;;3.26;81.49;101478.56;4968866;28;20241;-75
2021/04/23 02:53:30;;;;;;;8.03;3.47;;;;;;;3.30;81.61;101480.34;4965821;28;20483;-76
2021/04/23 02:55:56;;;;;;;5.83;3.40;;;;;;;3.33;81.58;101484.72;4967067;28;20248;-76
2021/04/23 02:58:23;;;;;;;7.70;3.37;;;;;;;3.32;82.02;101483.81;4963235;28;20230;-76
2021/04/23 03:00:53;;;;;;;7.20;3.80;;;;;;;3.32;82.39;101480.38;4965706;28;20210;-76
2021/04/23 03:03:21;;;;;;;7.03;3.40;;;;;;;3.34;81.79;101478.69;4967142;28;20284;-76
2021/04/23 03:05:48;;;;;;;10.63;3.40;;;;;;;3.34;81.98;101478.69;4966596;28;20924;-75
2021/04/23 03:08:15;;;;;;;9.80;3.43;;;;;;;3.32;82.13;101476.09;4966852;28;20248;-76
2021/04/23 03:10:44;;;;;;;8.93;3.37;;;;;;;3.31;82.11;101486.41;4965901;28;20206;-75
2021/04/23 03:13:12;;;;;;;10.40;3.40;;;;;;;3.26;82.42;101481.16;4967556;28;20222;-76
2021/04/23 03:15:39;;;;;;;8.90;3.13;;;;;;;3.21;82.89;101478.47;4962733;28;20206;-76
2021/04/23 03:18:06;;;;;;;8.03;3.53;;;;;;;3.16;83.16;101481.81;4966865;28;20230;-76
2021/04/23 03:20:33;;;;;;;8.30;3.20;;;;;;;3.13;83.21;101486.91;4962192;28;20205;-76
2021/04/23 03:23:00;;;;;;;6.17;3.30;;;;;;;3.09;83.65;101486.00;4958973;28;20262;-76
2021/04/23 03:25:27;;;;;;;7.13;3.37;;;;;;;3.05;83.37;101491.09;4966454;28;20212;-76
2021/04/23 03:27:54;;;;;;;7.13;3.37;;;;;;;3.03;83.53;101489.34;4963234;28;20213;-74
2021/04/23 03:30:23;;;;;;;8.30;3.27;;;;;;;3.01;83.48;101492.75;4963558;28;20228;-75
2021/04/23 03:32:50;;;;;;;4.20;2.73;;;;;;;2.98;83.55;101484.94;4963595;28;20234;-76
2021/04/23 03:35:16;;;;;;;5.23;3.23;;;;;;;2.96;84.22;101494.34;4963463;28;20265;-74
2021/04/23 03:37:44;;;;;;;7.35;3.60;;;;;;;2.95;83.66;101495.19;4964287;28;20221;-76
2021/04/23 03:40:14;;;;;;;5.13;3.13;;;;;;;2.93;83.97;101495.16;4966430;28;20217;-76
2021/04/23 03:42:40;;;;;;;7.27;3.33;;;;;;;2.94;83.81;101498.63;4958940;28;20237;-76
2021/04/23 03:45:09;;;;;;;5.67;3.47;;;;;;;3.00;83.75;101502.16;4968394;28;20539;-75
2021/04/23 03:47:35;;;;;;;8.57;3.30;;;;;;;3.03;83.73;101507.38;4964213;28;20215;-76
2021/04/23 03:50:01;;;;;;;7.77;3.30;;;;;;;3.06;83.52;101505.69;4966242;28;20260;-76
2021/04/23 03:52:27;;;;;;;8.93;3.27;;;;;;;3.07;83.41;101517.75;4965077;28;20967;-76
2021/04/23 03:54:53;;;;;;;10.63;3.80;;;;;;;3.11;83.15;101519.53;4958433;28;20210;-76
2021/04/23 03:57:20;;;;;;;6.47;3.20;;;;;;;3.13;82.82;101515.25;4963392;28;20293;-74
2021/04/23 03:59:46;;;;;;;7.37;3.40;;;;;;;3.16;82.49;101518.75;4965194;28;20257;-75
2021/04/23 04:02:11;;;;;;;6.07;3.23;;;;;;;3.20;82.86;101532.56;4961021;28;20670;-76
2021/04/23 04:04:37;;;;;;;4.60;2.90;;;;;;;3.23;82.52;101523.19;4964062;28;20229;-75
2021/04/23 04:07:03;;;;;;;5.53;2.87;;;;;;;3.27;82.94;101533.56;4964726;28;20212;-75
2021/04/23 04:09:29;;;;;;;8.33;3.40;;;;;;;3.31;82.97;101537.97;4963069;28;20202;-75
2021/04/23 04:11:55;;;;;;;6.53;3.53;;;;;;;3.34;83.33;101535.41;4961728;28;20210;-75
2021/04/23 04:14:22;;;;;;;7.73;3.13;;;;;;;3.36;82.43;101537.19;4965194;28;20233;-76
2021/04/23 04:16:48;;;;;;;10.90;3.80;;;;;;;3.37;82.16;101528.59;4961330;28;20753;-76
2021/04/23 04:19:14;;;;;;;4.93;3.00;;;;;;;3.42;81.48;101537.28;4964322;28;20225;-76
2021/04/23 04:21:40;;;;;;;6.90;3.30;;;;;;;3.46;81.60;101548.53;4962905;28;20650;-76
2021/04/23 04:24:07;;;;;;;6.30;3.43;;;;;;;3.52;81.53;101540.91;4962386;28;20238;-76
2021/04/23 04:26:33;;;;;;;7.10;3.07;;;;;;;3.55;81.25;101545.25;4955318;28;20210;-76
2021/04/23 04:28:59;;;;;;;5.17;3.07;;;;;;;3.57;81.07;101543.56;4956744;28;20284;-75
2021/04/23 04:31:25;;;;;;;6.90;3.57;;;;;;;3.59;80.68;101547.91;4961753;28;20228;-75
2021/04/23 04:33:52;;;;;;;10.13;3.27;;;;;;;3.62;80.74;101553.97;4957746;28;20736;-76
2021/04/23 04:36:18;;;;;;;4.97;2.90;;;;;;;3.64;80.29;101554.84;4945076;28;20605;-75
2021/04/23 04:38:45;;;;;;;8.67;3.20;;;;;;;3.67;80.07;101562.66;4949269;28;20258;-75
2021/04/23 04:41:11;;;;;;;4.83;3.20;;;;;;;3.72;80.36;101558.44;4958413;28;20306;-76
2021/04/23 04:43:39;;;;;;;5.07;3.20;;;;;;;3.75;79.93;101561.06;4960515;28;20264;-76
2021/04/23 04:46:06;;;;;;;5.73;2.80;;;;;;;3.80;80.55;101564.59;4955656;28;20206;-76
2021/04/23 04:48:32;;;;;;;8.53;3.67;;;;;;;3.83;79.94;101564.63;4955367;28;20813;-76
2021/04/23 04:51:00;;;;;;;6.23;3.23;;;;;;;3.88;80.41;101562.13;4953681;28;20297;-76
2021/04/23 04:53:26;;;;;;;8.60;3.83;;;;;;;3.93;80.62;101557.91;4958673;28;21050;-76
2021/04/23 04:55:55;;;;;;;9.57;3.57;;;;;;;3.96;80.45;101568.31;4956445;28;20659;-75
2021/04/23 04:58:23;;;;;;;9.93;3.80;;;;;;;4.01;79.64;101560.63;4960039;28;20225;-76
2021/04/23 05:00:50;;;;;;;7.73;3.30;;;;;;;4.03;80.36;101559.81;4956858;28;20206;-75
2021/04/23 05:03:16;;;;;;;7.83;4.00;;;;;;;4.06;79.94;101567.56;4959112;28;20637;-76
2021/04/23 05:05:43;;;;;;;7.37;3.93;;;;;;;4.07;80.49;101569.31;4952223;28;20857;-75
2021/04/23 05:08:10;;;;;;;9.70;4.03;;;;;;;4.10;80.17;101578.84;4960106;28;20205;-74
2021/04/23 05:10:37;;;;;;;6.27;3.97;;;;;;;4.12;80.03;101578.00;4964343;28;20272;-76
2021/04/23 05:13:03;;;;;;;9.77;4.00;;;;;;;4.17;79.75;101580.69;4959435;28;20229;-74
2021/04/23 05:15:30;;;;;;;8.53;4.13;;;;;;;4.23;80.25;101588.50;4961449;28;20209;-76
2021/04/23 05:17:56;;;;;;;10.53;4.33;;;;;;;4.24;79.85;101586.78;4958488;28;20212;-76
2021/04/23 05:20:23;;;;;;;11.43;4.40;;;;;;;4.27;80.25;101587.69;4962026;28;20209;-75
2021/04/23 05:22:50;;;;;;;10.10;4.23;;;;;;;4.28;79.78;101579.13;4962624;28;20223;-76
2021/04/23 05:25:18;;;;;;;10.70;4.30;;;;;;;4.31;80.19;101588.59;4963089;28;20212;-75
2021/04/23 05:27:44;;;;;;;5.80;3.77;;;;;;;4.34;79.76;101581.81;4959885;28;20691;-76
2021/04/23 05:30:13;;;;;;;8.93;4.20;;;;;;;4.37;79.31;101588.72;4959139;28;20203;-76
2021/04/23 05:32:40;;;;;;;11.47;4.80;;;;;;;4.43;80.61;101588.78;4952585;28;20249;-75
2021/04/23 05:35:08;;;;;;;9.90;4.53;;;;;;;4.48;79.84;101586.28;4958199;28;20260;-75
2021/04/23 05:37:34;;;;;;;8.13;3.57;;;;;;;4.48;79.23;101597.47;4960873;28;20207;-75
2021/04/23 05:40:01;;;;;;;13.53;4.70;;;;;;;4.55;79.47;101595.84;4963122;28;20234;-74
2021/04/23 05:42:28;;;;;;;9.17;4.00;;;;;;;4.55;79.46;101601.88;4961647;28;20197;-76
2021/04/23 05:44:55;;;;;;;8.50;4.27;;;;;;;4.60;79.36;101595.94;4963411;28;22799;-76
2021/04/23 05:47:21;;;;;;;8.23;4.37;;;;;;;4.57;78.28;101604.47;4967453;28;20209;-75
2021/04/23 05:49:47;;;;;;;7.73;4.23;;;;;;;4.63;78.71;101604.59;4963454;28;20692;-75
2021/04/23 05:52:13;;;;;;;7.50;4.03;;;;;;;4.70;78.65;101605.53;4961082;28;20199;-76
2021/04/23 05:54:39;;;;;;;9.03;4.10;;;;;;;4.71;77.88;101597.81;4960453;28;20227;-76
2021/04/23 05:57:07;;;;;;;8.37;3.90;;;;;;;4.79;78.76;101599.63;4968313;28;20256;-76
2021/04/23 05:59:33;;;;;;;7.10;3.60;;;;;;;4.88;78.78;101605.78;4963474;28;20229;-75
2021/04/23 06:01:59;;;;;;;7.40;4.43;;;;;;;4.98;78.83;101595.53;4965386;28;20214;-76
2021/04/23 06:04:26;;;;;;;11.87;4.13;;;;;;;5.06;78.55;101612.03;4966230;28;20226;-76
2021/04/23 06:06:52;;;;;;;11.27;4.37;;;;;;;4.99;77.43;101607.63;4968198;28;20202;-76
2021/04/23 06:09:17;;;;;;;8.30;4.00;;;;;;;5.07;77.82;101612.06;4966867;28;20610;-75
2021/04/23 06:11:43;;;;;;;11.40;4.20;;;;;;;5.13;78.08;101606.06;4962048;28;20714;-75
2021/04/23 06:14:11;;;;;;;9.03;4.10;;;;;;;5.10;77.38;101613.78;4961390;28;20238;-74
2021/04/23 06:16:38;;;;;;;7.93;4.17;;;;;;;5.10;77.62;101616.38;4962000;28;20213;-76
2021/04/23 06:19:04;;;;;;;7.03;4.30;;;;;;;5.12;78.14;101609.53;4966816;28;20218;-75
2021/04/23 06:21:30;;;;;;;6.87;3.83;;;;;;;5.15;78.69;101609.53;4965757;28;21071;-76
2021/04/23 06:23:56;;;;;;;8.80;4.03;;;;;;;5.11;77.41;101620.72;4965141;28;20230;-75
2021/04/23 06:26:22;;;;;;;9.07;4.07;;;;;;;5.13;78.53;101613.84;4960826;28;20209;-75
2021/04/23 06:28:48;;;;;;;7.93;4.00;;;;;;;5.09;77.53;101617.25;4965215;28;20194;-76
2021/04/23 06:31:16;;;;;;;10.37;4.67;;;;;;;5.04;77.80;101621.50;4959554;28;20917;-75
2021/04/23 06:33:46;;;;;;;7.30;4.00;;;;;;;5.03;78.20;101618.03;4966469;28;20234;-75
2021/04/23 06:36:12;;;;;;;9.80;4.30;;;;;;;5.07;77.97;101629.28;4966941;28;20206;-75
2021/04/23 06:38:38;;;;;;;7.83;3.83;;;;;;;5.09;78.22;101619.84;4964873;28;20246;-76
2021/04/23 06:41:04;;;;;;;8.87;4.17;;;;;;;5.18;77.57;101626.84;4968864;28;20841;-74
2021/04/23 06:43:30;;;;;;;7.93;4.67;;;;;;;5.27;77.99;101617.44;4967412;28;20241;-75
2021/04/23 06:45:57;;;;;;;10.10;5.00;;;;;;;5.34;78.45;101617.53;4952911;28;20212;-75
2021/04/23 06:48:24;;;;;;;10.67;4.80;;;;;;;5.36;77.52;101614.09;4955592;28;20207;-75
2021/04/23 06:50:50;;;;;;;10.90;4.50;;;;;;;5.35;76.97;101620.13;4958305;28;20234;-75
2021/04/23 06:53:18;;;;;;;9.53;4.83;;;;;;;5.39;77.37;101621.03;4960944;28;20314;-76
2021/04/23 06:55:45;;;;;;;14.47;4.67;;;;;;;5.45;76.62;101629.75;4961303;28;20230;-76
2021/04/23 06:58:11;;;;;;;7.57;4.17;;;;;;;5.43;76.44;101628.84;4965368;28;20296;-77
2021/04/23 07:00:38;;;;;;;9.67;4.23;;;;;;;5.58;77.43;101637.63;4959175;28;20204;-75
2021/04/23 07:03:07;;;;;;;9.83;4.50;;;;;;;5.72;76.38;101648.09;4958769;28;20257;-78
2021/04/23 07:05:34;;;;;;;12.30;4.30;;;;;;;5.75;75.51;101645.56;4961251;28;20749;-79
2021/04/23 07:08:00;;;;;;;6.97;4.30;;;;;;;5.80;75.36;101654.22;4965648;28;20586;-76
2021/04/23 07:10:27;;;;;;;9.30;4.93;;;;;;;5.84;75.14;101648.22;4966458;28;20242;-76
2021/04/23 07:12:55;;;;;;;12.47;4.83;;;;;;;5.80;74.64;101652.50;4962564;28;20223;-76
2021/04/23 07:15:23;;;;;;;5.10;3.77;;;;;;;5.87;74.63;101662.09;4969395;28;20594;-77
2021/04/23 07:17:51;;;;;;;11.97;3.90;;;;;;;5.94;73.76;101659.56;4956949;28;20210;-75
2021/04/23 07:20:18;;;;;;;8.03;3.90;;;;;;;5.93;72.46;101658.69;4964075;28;20776;-75
2021/04/23 07:22:46;;;;;;;5.77;3.90;;;;;;;6.05;74.13;101658.84;4961172;28;20682;-76
2021/04/23 07:25:13;;;;;;;8.57;4.03;;;;;;;6.11;73.36;101664.94;4963219;28;20706;-76
2021/04/23 07:27:39;;;;;;;10.33;3.83;;;;;;;6.11;72.22;101662.34;4960809;28;20603;-75
2021/04/23 07:30:07;;;;;;;5.17;3.60;;;;;;;6.15;73.61;101667.53;4962312;28;20202;-75
2021/04/23 07:32:33;;;;;;;6.50;3.77;;;;;;;6.04;72.95;101672.63;4953831;28;20220;-75
2021/04/23 07:34:59;;;;;;;5.97;4.10;;;;;;;6.12;73.38;101664.94;4961829;28;20214;-76
2021/04/23 07:37:25;;;;;;;8.33;4.43;;;;;;;6.24;74.94;101659.88;4961211;28;20222;-76
2021/04/23 07:39:52;;;;;;;10.73;5.20;;;;;;;6.23;72.99;101662.44;4955889;28;20284;-76
2021/04/23 07:42:18;;;;;;;12.10;4.43;;;;;;;6.11;73.14;101670.97;4966471;28;20217;-75
2021/04/23 07:44:44;;;;;;;7.40;4.37;;;;;;;6.10;73.47;101664.03;4964213;28;20202;-75
2021/04/23 07:47:10;;;;;;;7.27;3.97;;;;;;;6.16;73.07;101669.28;4961381;28;20206;-76
2021/04/23 07:49:36;;;;;;;7.20;4.20;;;;;;;6.04;73.63;101679.53;4956636;28;20214;-76
2021/04/23 07:52:03;;;;;;;7.07;4.47;;;;;;;5.97;73.32;101677.75;4958729;28;20209;-76
2021/04/23 07:54:29;;;;;;;9.97;5.73;;;;;;;5.97;74.76;101673.41;4965070;28;20585;-77
2021/04/23 07:56:55;;;;;;;6.57;4.87;;;;;;;6.09;74.16;101683.03;4961979;28;20233;-76
2021/04/23 07:59:21;;;;;;;9.07;4.70;;;;;;;6.25;73.48;101684.91;4959739;28;20217;-75
2021/04/23 08:01:51;;;;;;;9.87;3.93;;;;;;;6.34;71.96;101689.28;4964599;28;20256;-76
2021/04/23 08:04:17;;;;;;;9.73;3.63;;;;;;;6.20;72.05;101689.16;4958124;28;20261;-75
2021/04/23 08:06:43;;;;;;;12.07;4.37;;;;;;;6.22;72.09;101689.19;4962647;28;20205;-77
2021/04/23 08:09:09;;;;;;;6.13;4.03;;;;;;;6.21;72.97;101683.16;4957766;28;20614;-77
2021/04/23 08:11:35;;;;;;;8.23;4.13;;;;;;;6.22;72.02;101692.63;4958451;28;20202;-76
2021/04/23 08:14:02;;;;;;;5.50;3.87;;;;;;;6.09;71.47;101692.53;4960027;28;20761;-76
2021/04/23 08:16:27;;;;;;;6.73;3.40;;;;;;;6.08;71.12;101702.00;4959226;28;20213;-75
2021/04/23 08:18:53;;;;;;;8.17;3.47;;;;;;;6.22;72.20;101697.81;4957508;28;20222;-76
2021/04/23 08:21:20;;;;;;;10.33;4.27;;;;;;;6.29;71.23;101701.31;4962712;28;20210;-76
2021/04/23 08:23:47;;;;;;;10.53;4.60;;;;;;;6.50;73.24;101685.09;4959972;28;20222;-76
2021/04/23 08:26:13;;;;;;;11.33;6.00;;;;;;;6.66;70.57;101698.16;4959517;28;20301;-75
2021/04/23 08:28:39;;;;;;;8.80;4.63;;;;;;;6.82;71.78;101694.81;4957998;28;20193;-76
2021/04/23 08:31:06;;;;;;;8.57;4.10;;;;;;;6.75;68.47;101699.09;4955777;28;20205;-76
2021/04/23 08:33:32;;;;;;;9.37;4.83;;;;;;;6.84;69.29;101698.28;4958067;28;20749;-75
2021/04/23 08:35:58;;;;;;;9.90;4.90;;;;;;;6.98;69.10;101699.25;4957808;28;20289;-76
2021/04/23 08:38:24;;;;;;;6.73;3.93;;;;;;;6.94;68.08;101707.00;4962353;28;20212;-76
2021/04/23 08:40:51;;;;;;;15.63;7.23;;;;;;;6.74;67.21;101709.47;4956584;28;20260;-76
2021/04/23 08:43:17;;;;;;;14.87;5.97;;;;;;;6.71;69.28;101710.31;4957405;28;20218;-76
2021/04/23 08:45:43;;;;;;;15.93;6.70;;;;;;;6.76;69.98;101708.63;4957755;28;20209;-74
2021/04/23 08:48:11;;;;;;;9.93;4.33;;;;;;;6.73;67.42;101712.91;4956625;28;20934;-76
2021/04/23 08:50:37;;;;;;;23.30;8.00;;;;;;;6.67;66.34;101718.91;4959710;28;20208;-76
2021/04/23 08:53:04;;;;;;;21.10;8.13;;;;;;;6.70;65.60;101715.47;4957290;28;20821;-75
2021/04/23 08:55:30;;;;;;;16.90;6.23;;;;;;;6.65;64.20;101715.47;4954623;28;20480;-75
2021/04/23 08:57:56;;;;;;;10.03;5.50;;;;;;;6.75;63.43;101724.16;4957331;28;20685;-76
2021/04/23 09:00:22;;;;;;;11.90;6.00;;;;;;;6.99;63.38;101726.03;4959212;28;20227;-76
2021/04/23 09:02:49;;;;;;;9.87;4.47;;;;;;;7.12;62.41;101725.25;4959440;28;20230;-75
2021/04/23 09:05:16;;;;;;;12.47;4.17;;;;;;;7.25;62.43;101731.38;4958272;28;20203;-75
2021/04/23 09:07:57;;;;;;;7.93;3.97;;;;;;;7.37;61.86;101736.63;4956719;28;20206;-76
2021/04/23 09:10:23;;;;;;;6.77;3.33;;;;;;;7.49;61.81;101730.66;4953443;28;20257;-76
2021/04/23 09:13:04;;;;;;;12.30;3.90;;;;;;;7.83;60.57;101735.94;4961250;28;20218;-76
2021/04/23 09:15:30;;;;;;;6.10;3.03;;;;;;;7.83;59.64;101735.06;4954609;28;20671;-76
2021/04/23 09:18:10;;;;;;;6.60;2.80;;;;;;;7.59;59.40;101744.50;4960539;28;20218;-75
2021/04/23 09:20:39;;;;;;;7.67;2.53;;;;;;;7.67;59.30;101739.34;4959855;28;20234;-76
2021/04/23 09:23:07;;;;;;;7.23;2.77;;;;;;;7.75;59.32;101742.84;4961452;28;20221;-75
2021/04/23 09:25:46;;;;;;;4.93;2.90;;;;;;;7.90;59.57;101729.91;4958215;28;20238;-75
2021/04/23 09:28:12;;;;;;;6.63;2.87;;;;;;;8.12;59.76;101725.59;4961020;28;20676;-75
2021/04/23 09:30:39;;;;;;;5.77;3.20;;;;;;;8.29;58.62;101737.78;4955831;28;20211;-75
2021/04/23 09:33:21;;;;;;;6.20;3.77;;;;;;;8.07;57.47;101737.75;4960927;28;21101;-77
2021/04/23 09:35:48;;;;;;;7.50;3.00;;;;;;;8.15;59.25;101743.81;4959384;28;20938;-76
2021/04/23 09:38:16;;;;;;;7.33;2.93;;;;;;;8.03;58.95;101740.31;4956408;28;20259;-76
2021/04/23 09:40:42;;;;;;;4.60;2.83;;;;;;;7.93;59.57;101736.81;4960931;28;20208;-76
2021/04/23 09:43:09;;;;;;;5.70;2.50;;;;;;;8.21;59.70;101742.09;4960606;28;20215;-76
2021/04/23 09:45:49;;;;;;;5.27;3.03;;;;;;;8.35;59.28;101729.97;4964427;28;20216;-77
2021/04/23 09:48:20;;;;;;;4.23;2.60;;;;;;;8.42;58.87;101739.53;4963449;28;20208;-75
2021/04/23 09:50:46;;;;;;;7.20;2.33;;;;;;;8.81;58.91;101737.81;4958137;28;20216;-76
2021/04/23 09:53:12;;;;;;;6.13;2.70;;;;;;;8.83;58.30;101736.06;4966034;28;20730;-75
2021/04/23 09:55:39;;;;;;;7.60;2.40;;;;;;;9.12;57.60;101739.50;4958845;28;20233;-76
2021/04/23 09:58:08;;;;;;;6.47;2.20;;;;;;;8.85;56.78;101749.94;4964474;28;20731;-75
2021/04/23 10:00:39;;;;;;;6.57;2.50;;;;;;;8.63;56.55;101749.06;4959983;28;20713;-77
2021/04/23 10:03:05;;;;;;;4.67;2.50;;;;;;;8.87;58.48;101747.34;4960907;28;20761;-76
2021/04/23 10:05:34;;;;;;;7.10;2.53;;;;;;;8.57;56.34;101750.81;4958856;28;20203;-76
2021/04/23 10:08:01;;;;;;;6.57;2.30;;;;;;;8.53;54.88;101757.72;4957552;28;20210;-75
2021/04/23 10:10:28;;;;;;;6.17;2.50;;;;;;;8.51;55.08;101754.25;4956880;28;20218;-76
2021/04/23 10:12:57;;;;;;;3.20;2.10;;;;;;;8.80;55.63;101751.66;4965563;28;20229;-76
2021/04/23 10:15:25;;;;;;;4.10;2.30;;;;;;;9.17;55.66;101736.00;4964650;28;20205;-76
2021/04/23 10:17:53;;;;;;;8.20;2.53;;;;;;;9.57;57.00;101730.66;4958658;28;20300;-76
2021/04/23 10:20:22;;;;;;;7.20;2.97;;;;;;;9.47;57.00;101739.38;4958917;28;20243;-77
2021/04/23 10:22:49;;;;;;;5.50;2.30;;;;;;;9.18;57.05;101735.16;4961288;28;20245;-76
2021/04/23 10:25:16;;;;;;;7.10;2.73;;;;;;;9.41;56.77;101742.00;4961610;28;20264;-77
2021/04/23 10:27:45;;;;;;;6.23;2.83;;;;;;;9.70;55.70;101741.88;4968051;28;20212;-77
2021/04/23 10:30:14;;;;;;;4.93;2.73;;;;;;;9.90;53.96;101752.19;4967851;28;20205;-75
2021/04/23 10:32:40;;;;;;;6.60;3.00;;;;;;;10.09;57.16;101746.88;4967861;28;20317;-77
2021/04/23 10:35:07;;;;;;;5.47;2.63;;;;;;;10.12;55.53;101747.72;4970246;28;20229;-77
2021/04/23 10:37:33;;;;;;;5.73;2.60;;;;;;;10.37;56.53;101738.03;4966134;28;20245;-76
2021/04/23 10:39:59;;;;;;;7.27;2.60;;;;;;;10.40;54.12;101737.16;4966300;28;20305;-77
2021/04/23 10:42:49;;;;;;;8.40;3.00;;;;;;;10.19;54.65;101745.97;4964393;28;20193;-76
2021/04/23 10:45:21;;;;;;;8.53;3.83;;;;;;;9.79;52.80;101746.19;4961248;28;20213;-77
2021/04/23 10:47:48;;;;;;;8.77;3.30;;;;;;;9.62;55.38;101738.44;4959892;28;20266;-77
2021/04/23 10:50:18;;;;;;;7.87;3.33;;;;;;;9.75;56.37;101734.06;4960839;28;20206;-77
2021/04/23 10:53:00;;;;;;;5.20;3.30;;;;;;;9.81;54.87;101734.00;4961197;28;20763;-76
2021/04/23 10:55:42;;;;;;;5.13;2.80;;;;;;;10.15;56.15;101742.50;4963332;28;20226;-77
2021/04/23 10:58:10;;;;;;;7.17;2.77;;;;;;;10.34;54.49;101743.28;4959641;28;20206;-77
2021/04/23 11:00:40;;;;;;;6.13;2.43;;;;;;;10.18;53.20;101749.44;4961656;28;20224;-77
2021/04/23 11:03:24;;;;;;;7.03;2.20;;;;;;;9.63;52.91;101764.47;4967075;28;20280;-77
2021/04/23 11:05:52;;;;;;;3.90;2.57;;;;;;;9.63;54.69;101751.44;4959280;28;20234;-75
2021/04/23 11:08:18;;;;;;;4.33;2.40;;;;;;;9.90;53.77;101746.13;4966050;28;20226;-77
2021/04/23 11:11:18;;;;;;;6.50;2.27;;;;;;;10.47;52.32;101761.44;4956444;28;20774;-76
2021/04/23 11:13:53;;;;;;;5.33;2.13;;;;;;;10.30;52.23;101756.31;4962637;28;20226;-75
2021/04/23 11:16:43;;;;;;;4.90;1.90;;;;;;;10.17;50.51;101752.94;4968688;28;20228;-76
2021/04/23 11:19:32;;;;;;;8.30;3.03;;;;;;;9.87;51.44;101752.22;4961000;28;20893;-76
2021/04/23 11:22:08;;;;;;;5.33;2.17;;;;;;;10.24;53.25;101750.25;4961878;28;20214;-76
2021/04/23 11:24:34;;;;;;;5.77;2.27;;;;;;;10.58;52.97;101764.81;4958932;28;20254;-74
2021/04/23 11:27:08;;;;;;;7.10;2.60;;;;;;;10.26;52.81;101758.06;4963232;28;20204;-76
2021/04/23 11:29:37;;;;;;;5.03;2.60;;;;;;;10.01;53.90;101762.56;4959925;28;20211;-75
2021/04/23 11:32:12;;;;;;;9.07;2.73;;;;;;;10.31;55.15;101745.00;4965575;28;20202;-76
2021/04/23 11:34:40;;;;;;;6.37;2.60;;;;;;;10.54;52.60;101750.94;4962852;28;21546;-75